Time;durP1;ratioP1;P1;durP2;ratioP2;P2;SDS_P1;SDS_P2;PMS_P1;PMS_P2;Temp;Humidity;BMP_temperature;BMP_pressure;BME280_temperature;BME280_humidity;BME280_pressure;Samples;Min_cycle;Max_cycle;Signal;HPM_P1;HPM_P2
2022/08/16 00:00:36;;;;;;;4.50;3.90;;;;;;;;;;5040306;28;20490;-53
2022/08/16 00:03:02;;;;;;;4.40;4.10;;;;;;;;;;5034445;28;20530;-52
2022/08/16 00:05:29;;;;;;;4.70;4.40;;;;;;;;;;5047199;28;20470;-52
2022/08/16 00:07:55;;;;;;;4.50;4.13;;;;;;;;;;5053323;28;20448;-52
2022/08/16 00:10:22;;;;;;;4.70;4.30;;;;;;;;;;5040264;28;20424;-52
2022/08/16 00:12:50;;;;;;;4.93;4.53;;;;;;;;;;5033600;28;20970;-53
2022/08/16 00:15:27;;;;;;;5.73;4.83;;;;;;;;;;5044260;28;20431;-52
2022/08/16 00:17:53;;;;;;;7.80;4.77;;;;;;;;;;5053320;28;20419;-52
2022/08/16 00:20:20;;;;;;;4.13;3.83;;;;;;;;;;5045536;28;20556;-52
2022/08/16 00:22:46;;;;;;;4.70;4.30;;;;;;;;;;5033118;28;20409;-52
2022/08/16 00:25:15;;;;;;;5.40;4.90;;;;;;;;;;5042541;28;20911;-52
2022/08/16 00:27:41;;;;;;;5.63;5.13;;;;;;;;;;5053233;28;20899;-52
2022/08/16 00:30:09;;;;;;;6.87;4.83;;;;;;;;;;5049916;28;20477;-52
2022/08/16 00:32:36;;;;;;;5.37;4.50;;;;;;;;;;5046988;28;20461;-52
2022/08/16 00:35:02;;;;;;;5.40;4.93;;;;;;;;;;5033435;28;20408;-53
2022/08/16 00:37:28;;;;;;;4.83;4.43;;;;;;;;;;5038108;28;20443;-53
2022/08/16 00:39:53;;;;;;;8.40;4.90;;;;;;;;;;5052373;28;20413;-52
2022/08/16 00:42:20;;;;;;;5.17;4.67;;;;;;;;;;5042978;28;20775;-52
2022/08/16 00:44:50;;;;;;;10.20;5.43;;;;;;;;;;5044810;28;20521;-52
2022/08/16 00:47:16;;;;;;;4.80;4.50;;;;;;;;;;5052209;28;20449;-52
2022/08/16 00:49:42;;;;;;;4.80;4.40;;;;;;;;;;5052215;28;20958;-52
2022/08/16 00:52:08;;;;;;;4.63;4.33;;;;;;;;;;5050896;28;20458;-52
2022/08/16 00:54:34;;;;;;;8.27;4.97;;;;;;;;;;5052740;28;20755;-52
2022/08/16 00:57:01;;;;;;;5.60;5.10;;;;;;;;;;5047267;28;20440;-52
2022/08/16 00:59:29;;;;;;;6.77;4.83;;;;;;;;;;5032631;28;20409;-52
2022/08/16 01:01:55;;;;;;;4.73;4.23;;;;;;;;;;5035569;28;21291;-53
2022/08/16 01:04:23;;;;;;;4.77;4.20;;;;;;;;;;5052123;28;20394;-52
2022/08/16 01:06:50;;;;;;;4.83;4.37;;;;;;;;;;5049110;28;20437;-52
2022/08/16 01:09:16;;;;;;;5.30;4.80;;;;;;;;;;5033169;28;20450;-52
2022/08/16 01:11:42;;;;;;;6.13;5.47;;;;;;;;;;5038349;28;20455;-52
2022/08/16 01:14:12;;;;;;;5.03;4.63;;;;;;;;;;5048807;28;20410;-52
2022/08/16 01:16:38;;;;;;;4.70;4.40;;;;;;;;;;5051337;28;20948;-52
2022/08/16 01:19:07;;;;;;;4.90;4.50;;;;;;;;;;5051342;28;20403;-52
2022/08/16 01:21:42;;;;;;;5.87;5.27;;;;;;;;;;5051429;28;20431;-52
2022/08/16 01:24:20;;;;;;;4.67;4.27;;;;;;;;;;5051235;28;20407;-52
2022/08/16 01:26:46;;;;;;;5.20;4.70;;;;;;;;;;5052434;28;20774;-52
2022/08/16 01:29:26;;;;;;;5.13;4.63;;;;;;;;;;5050082;28;20414;-52
2022/08/16 01:31:52;;;;;;;5.40;4.90;;;;;;;;;;5031744;28;20558;-53
2022/08/16 01:34:18;;;;;;;4.67;4.37;;;;;;;;;;5033916;28;20428;-52
2022/08/16 01:36:44;;;;;;;6.97;4.83;;;;;;;;;;5051891;28;20420;-52
2022/08/16 01:39:13;;;;;;;5.33;4.93;;;;;;;;;;5051125;28;20484;-52
2022/08/16 01:41:39;;;;;;;4.90;4.50;;;;;;;;;;5031665;28;20488;-52
2022/08/16 01:44:05;;;;;;;6.30;5.00;;;;;;;;;;5031828;28;20420;-52
2022/08/16 01:46:33;;;;;;;5.43;4.77;;;;;;;;;;5036065;28;20447;-52
2022/08/16 01:49:01;;;;;;;5.70;5.20;;;;;;;;;;5050845;28;20428;-52
2022/08/16 01:51:28;;;;;;;5.40;5.00;;;;;;;;;;5034215;28;20518;-53
2022/08/16 01:53:54;;;;;;;7.83;4.77;;;;;;;;;;5038107;28;20555;-52
2022/08/16 01:56:20;;;;;;;5.63;5.23;;;;;;;;;;5051810;28;20405;-52
2022/08/16 01:58:46;;;;;;;5.73;5.23;;;;;;;;;;5044401;28;20501;-52
2022/08/16 02:01:13;;;;;;;7.77;5.77;;;;;;;;;;5031225;28;20803;-52
2022/08/16 02:03:39;;;;;;;6.10;5.50;;;;;;;;;;5032178;28;20419;-52
2022/08/16 02:06:06;;;;;;;4.90;4.50;;;;;;;;;;5031714;28;20376;-52
2022/08/16 02:08:32;;;;;;;5.37;4.97;;;;;;;;;;5035483;28;20431;-52
2022/08/16 02:10:59;;;;;;;5.90;5.10;;;;;;;;;;5050901;28;20408;-53
2022/08/16 02:13:25;;;;;;;8.07;4.47;;;;;;;;;;5048243;28;20430;-53
2022/08/16 02:15:51;;;;;;;6.13;5.63;;;;;;;;;;5032024;28;21129;-52
2022/08/16 02:18:17;;;;;;;6.00;5.50;;;;;;;;;;5032195;28;20487;-52
2022/08/16 02:20:47;;;;;;;6.60;4.87;;;;;;;;;;5050993;28;20468;-52
2022/08/16 02:23:13;;;;;;;6.00;5.43;;;;;;;;;;5051295;28;20411;-52
2022/08/16 02:25:39;;;;;;;5.13;4.67;;;;;;;;;;5031533;28;20815;-52
2022/08/16 02:28:05;;;;;;;6.60;5.80;;;;;;;;;;5031420;28;20420;-51
2022/08/16 02:30:32;;;;;;;6.33;5.27;;;;;;;;;;5048754;28;20926;-52
2022/08/16 02:32:58;;;;;;;6.27;5.50;;;;;;;;;;5049096;28;20458;-52
2022/08/16 02:35:25;;;;;;;5.40;4.90;;;;;;;;;;5054626;28;20393;-52
2022/08/16 02:37:51;;;;;;;5.77;5.33;;;;;;;;;;5039572;28;20935;-52
2022/08/16 02:40:18;;;;;;;5.40;4.90;;;;;;;;;;5034910;28;20399;-52
2022/08/16 02:42:45;;;;;;;6.83;5.00;;;;;;;;;;5049535;28;20431;-52
2022/08/16 02:45:11;;;;;;;5.30;4.80;;;;;;;;;;5041786;28;20434;-52
2022/08/16 02:47:37;;;;;;;5.30;4.93;;;;;;;;;;5047195;28;20930;-52
2022/08/16 02:50:03;;;;;;;5.97;4.83;;;;;;;;;;5034577;28;20401;-52
2022/08/16 02:52:29;;;;;;;6.50;6.00;;;;;;;;;;5051327;28;21006;-52
2022/08/16 02:54:55;;;;;;;6.03;5.50;;;;;;;;;;5052229;28;20411;-52
2022/08/16 02:57:22;;;;;;;5.00;4.50;;;;;;;;;;5052046;28;20947;-51
2022/08/16 02:59:49;;;;;;;6.67;5.33;;;;;;;;;;5035408;28;20481;-52
2022/08/16 03:02:15;;;;;;;5.40;4.60;;;;;;;;;;5044794;28;20412;-52
2022/08/16 03:04:41;;;;;;;8.40;5.03;;;;;;;;;;5047699;28;20418;-52
2022/08/16 03:07:07;;;;;;;5.40;4.90;;;;;;;;;;5054817;28;20437;-52
2022/08/16 03:09:34;;;;;;;5.70;5.20;;;;;;;;;;5047140;28;20447;-52
2022/08/16 03:12:00;;;;;;;4.67;4.23;;;;;;;;;;5034442;28;21000;-52
2022/08/16 03:14:26;;;;;;;7.10;4.63;;;;;;;;;;5044374;28;20441;-51
2022/08/16 03:16:53;;;;;;;8.57;5.77;;;;;;;;;;5052983;28;20429;-52
2022/08/16 03:19:19;;;;;;;5.50;5.00;;;;;;;;;;5046947;28;20447;-52
2022/08/16 03:21:45;;;;;;;6.10;5.10;;;;;;;;;;5047115;28;20427;-52
2022/08/16 03:24:11;;;;;;;6.03;5.43;;;;;;;;;;5046166;28;20491;-51
2022/08/16 03:26:37;;;;;;;5.93;4.60;;;;;;;;;;5049102;28;20487;-52
2022/08/16 03:29:03;;;;;;;5.20;4.80;;;;;;;;;;5043786;28;20937;-52
2022/08/16 03:31:30;;;;;;;5.33;4.93;;;;;;;;;;5050166;28;20958;-52
2022/08/16 03:33:56;;;;;;;8.87;5.30;;;;;;;;;;5034450;28;20480;-52
2022/08/16 03:36:22;;;;;;;5.40;5.00;;;;;;;;;;5035979;28;20979;-52
2022/08/16 03:38:48;;;;;;;5.17;4.67;;;;;;;;;;5054206;28;20403;-52
2022/08/16 03:41:14;;;;;;;5.10;4.70;;;;;;;;;;5053301;28;20395;-51
2022/08/16 03:43:40;;;;;;;4.93;4.50;;;;;;;;;;5034586;28;20742;-52
2022/08/16 03:46:06;;;;;;;5.53;5.13;;;;;;;;;;5052179;28;20432;-52
2022/08/16 03:48:34;;;;;;;5.90;4.93;;;;;;;;;;5053181;28;20442;-52
2022/08/16 03:51:00;;;;;;;5.20;4.77;;;;;;;;;;5053586;28;20481;-53
2022/08/16 03:53:27;;;;;;;5.17;4.67;;;;;;;;;;5053897;28;20460;-52
2022/08/16 03:55:53;;;;;;;5.30;4.90;;;;;;;;;;5053900;28;20402;-51
2022/08/16 03:58:19;;;;;;;5.50;5.10;;;;;;;;;;5037860;28;20451;-52
2022/08/16 04:00:45;;;;;;;4.77;4.40;;;;;;;;;;5033127;28;20426;-53
2022/08/16 04:03:11;;;;;;;4.97;4.57;;;;;;;;;;5047891;28;20423;-53
2022/08/16 04:05:38;;;;;;;5.70;5.20;;;;;;;;;;5054017;28;20417;-51
2022/08/16 04:08:05;;;;;;;4.90;4.50;;;;;;;;;;5040868;28;20439;-51
2022/08/16 04:10:31;;;;;;;5.70;4.97;;;;;;;;;;5033516;28;20826;-52
2022/08/16 04:12:57;;;;;;;5.63;5.23;;;;;;;;;;5043193;28;20537;-52
2022/08/16 04:15:24;;;;;;;5.03;4.53;;;;;;;;;;5053548;28;20427;-52
2022/08/16 04:17:51;;;;;;;6.27;5.10;;;;;;;;;;5052473;28;20436;-52
2022/08/16 04:20:17;;;;;;;4.83;4.43;;;;;;;;;;5053176;28;20543;-52
2022/08/16 04:22:43;;;;;;;5.93;4.20;;;;;;;;;;5047589;28;20451;-52
2022/08/16 04:25:10;;;;;;;5.03;4.63;;;;;;;;;;5047878;28;20937;-52
2022/08/16 04:27:36;;;;;;;4.83;4.43;;;;;;;;;;5047784;28;20442;-52
2022/08/16 04:30:04;;;;;;;4.90;4.40;;;;;;;;;;5045814;28;20418;-52
2022/08/16 04:32:31;;;;;;;4.93;4.53;;;;;;;;;;5033387;28;20433;-52
2022/08/16 04:34:57;;;;;;;5.40;5.00;;;;;;;;;;5046715;28;20473;-52
2022/08/16 04:37:23;;;;;;;5.07;4.70;;;;;;;;;;5049283;28;20437;-52
2022/08/16 04:39:48;;;;;;;5.70;5.20;;;;;;;;;;5044805;28;20934;-52
2022/08/16 04:42:16;;;;;;;5.13;4.60;;;;;;;;;;5037509;28;20410;-52
2022/08/16 04:44:42;;;;;;;5.20;4.80;;;;;;;;;;5051223;28;20420;-52
2022/08/16 04:47:08;;;;;;;4.93;4.23;;;;;;;;;;5053295;28;20459;-51
2022/08/16 04:49:35;;;;;;;5.90;5.40;;;;;;;;;;5045348;28;20411;-52
2022/08/16 04:52:00;;;;;;;5.67;4.80;;;;;;;;;;5039590;28;20449;-52
2022/08/16 04:54:27;;;;;;;5.97;4.70;;;;;;;;;;5052622;28;20412;-52
2022/08/16 04:56:52;;;;;;;5.47;4.73;;;;;;;;;;5048802;28;20428;-57
2022/08/16 04:59:18;;;;;;;4.83;4.43;;;;;;;;;;5038283;28;20770;-52
2022/08/16 05:01:44;;;;;;;5.33;4.80;;;;;;;;;;5043493;28;20433;-51
2022/08/16 05:04:10;;;;;;;5.80;5.30;;;;;;;;;;5049716;28;20943;-52
2022/08/16 05:06:36;;;;;;;6.73;4.80;;;;;;;;;;5032566;28;20394;-51
2022/08/16 05:09:02;;;;;;;5.60;5.13;;;;;;;;;;5033524;28;20398;-51
2022/08/16 05:11:29;;;;;;;7.40;6.10;;;;;;;;;;5032832;28;20986;-51
2022/08/16 05:13:55;;;;;;;6.00;5.27;;;;;;;;;;5032392;28;20747;-52
2022/08/16 05:16:23;;;;;;;7.70;6.90;;;;;;;;;;5052031;28;20406;-51
2022/08/16 05:18:50;;;;;;;10.33;5.40;;;;;;;;;;5051965;28;20403;-51
2022/08/16 05:21:16;;;;;;;5.20;4.80;;;;;;;;;;5049787;28;20943;-52
2022/08/16 05:23:43;;;;;;;8.70;4.37;;;;;;;;;;5052032;28;20793;-52
2022/08/16 05:26:09;;;;;;;4.87;4.37;;;;;;;;;;5038383;28;20417;-53
2022/08/16 05:28:35;;;;;;;4.57;4.07;;;;;;;;;;5034781;28;20492;-52
2022/08/16 05:31:01;;;;;;;4.70;4.30;;;;;;;;;;5046642;28;20728;-51
2022/08/16 05:33:27;;;;;;;4.87;4.47;;;;;;;;;;5052134;28;20468;-51
2022/08/16 05:35:53;;;;;;;4.87;4.53;;;;;;;;;;5038536;28;20415;-51
2022/08/16 05:38:19;;;;;;;5.47;4.97;;;;;;;;;;5031827;28;20427;-51
2022/08/16 05:40:45;;;;;;;5.20;4.70;;;;;;;;;;5042031;28;20468;-51
2022/08/16 05:43:11;;;;;;;7.07;4.50;;;;;;;;;;5052051;28;20414;-51
2022/08/16 05:45:37;;;;;;;5.10;4.60;;;;;;;;;;5045377;28;20426;-51
2022/08/16 05:48:03;;;;;;;5.30;4.90;;;;;;;;;;5045101;28;20436;-52
2022/08/16 05:50:30;;;;;;;4.73;4.37;;;;;;;;;;5051224;28;20767;-52
2022/08/16 05:52:56;;;;;;;7.00;4.50;;;;;;;;;;5051870;28;20949;-52
2022/08/16 05:55:21;;;;;;;5.47;4.77;;;;;;;;;;5049701;28;20409;-52
2022/08/16 05:57:47;;;;;;;9.60;4.67;;;;;;;;;;5051276;28;20430;-52
2022/08/16 06:00:14;;;;;;;4.80;4.50;;;;;;;;;;5049421;28;20518;-52
2022/08/16 06:02:40;;;;;;;4.50;4.17;;;;;;;;;;5051678;28;20412;-52
2022/08/16 06:05:07;;;;;;;8.33;5.77;;;;;;;;;;5049064;28;20420;-52
2022/08/16 06:07:33;;;;;;;5.23;4.73;;;;;;;;;;5031533;28;20983;-52
2022/08/16 06:09:59;;;;;;;6.00;4.80;;;;;;;;;;5030516;28;20441;-52
2022/08/16 06:12:25;;;;;;;5.27;4.50;;;;;;;;;;5050232;28;20466;-52
2022/08/16 06:14:51;;;;;;;4.80;4.40;;;;;;;;;;5051620;28;20898;-52
2022/08/16 06:17:18;;;;;;;5.57;5.17;;;;;;;;;;5040344;28;20466;-52
2022/08/16 06:19:44;;;;;;;4.57;4.27;;;;;;;;;;5050688;28;20396;-53
2022/08/16 06:22:10;;;;;;;4.43;4.13;;;;;;;;;;5034057;28;20419;-52
2022/08/16 06:24:36;;;;;;;5.07;4.67;;;;;;;;;;5031399;28;20400;-52
2022/08/16 06:27:02;;;;;;;5.27;4.87;;;;;;;;;;5036028;28;20440;-52
2022/08/16 06:29:28;;;;;;;4.67;4.33;;;;;;;;;;5031073;28;20923;-52
2022/08/16 06:31:54;;;;;;;8.67;5.17;;;;;;;;;;5037635;28;20798;-53
2022/08/16 06:34:21;;;;;;;7.23;5.03;;;;;;;;;;5039392;28;20416;-52
2022/08/16 06:36:47;;;;;;;5.30;4.77;;;;;;;;;;5038117;28;20440;-52
2022/08/16 06:39:13;;;;;;;5.10;4.60;;;;;;;;;;5036679;28;20815;-51
2022/08/16 06:41:39;;;;;;;5.30;4.87;;;;;;;;;;5035967;28;20411;-52
2022/08/16 06:44:05;;;;;;;4.47;4.10;;;;;;;;;;5031650;28;20847;-51
2022/08/16 06:46:35;;;;;;;7.00;4.90;;;;;;;;;;5039027;28;20421;-52
2022/08/16 06:49:02;;;;;;;4.90;4.33;;;;;;;;;;5050365;28;20404;-52
2022/08/16 06:51:28;;;;;;;6.23;5.37;;;;;;;;;;5050158;28;20454;-51
2022/08/16 06:53:54;;;;;;;5.60;5.00;;;;;;;;;;5050645;28;20401;-52
2022/08/16 06:56:20;;;;;;;5.47;4.97;;;;;;;;;;5043680;28;20492;-51
2022/08/16 06:58:50;;;;;;;7.00;5.00;;;;;;;;;;5044502;28;20443;-52
2022/08/16 07:01:16;;;;;;;4.50;4.20;;;;;;;;;;5038119;28;20440;-52
2022/08/16 07:03:42;;;;;;;4.77;4.47;;;;;;;;;;5051063;28;20463;-52
2022/08/16 07:06:08;;;;;;;10.83;5.17;;;;;;;;;;5034728;28;20444;-52
2022/08/16 07:08:34;;;;;;;4.77;4.40;;;;;;;;;;5047174;28;20506;-51
2022/08/16 07:11:00;;;;;;;10.13;5.43;;;;;;;;;;5035364;28;20416;-52
2022/08/16 07:13:26;;;;;;;5.30;4.80;;;;;;;;;;5043074;28;20465;-52
2022/08/16 07:15:52;;;;;;;9.13;4.23;;;;;;;;;;5031917;28;20418;-52
2022/08/16 07:18:19;;;;;;;5.30;4.90;;;;;;;;;;5036406;28;20433;-52
2022/08/16 07:20:45;;;;;;;7.70;5.30;;;;;;;;;;5050418;28;20413;-51
2022/08/16 07:23:12;;;;;;;8.67;4.73;;;;;;;;;;5053246;28;20499;-52
2022/08/16 07:25:38;;;;;;;5.40;5.00;;;;;;;;;;5041801;28;20948;-51
2022/08/16 07:28:04;;;;;;;6.83;3.60;;;;;;;;;;5033674;28;20434;-51
2022/08/16 07:30:31;;;;;;;6.43;4.37;;;;;;;;;;5037050;28;20422;-52
2022/08/16 07:32:57;;;;;;;6.47;5.87;;;;;;;;;;5048776;28;20498;-52
2022/08/16 07:35:23;;;;;;;7.23;5.40;;;;;;;;;;5034471;28;20453;-51
2022/08/16 07:37:49;;;;;;;7.90;5.20;;;;;;;;;;5040215;28;20445;-52
2022/08/16 07:40:15;;;;;;;5.97;4.70;;;;;;;;;;5047599;28;20411;-52
2022/08/16 07:42:41;;;;;;;7.73;5.53;;;;;;;;;;5052376;28;20762;-52
2022/08/16 07:45:08;;;;;;;5.90;4.73;;;;;;;;;;5034425;28;20500;-52
2022/08/16 07:47:34;;;;;;;8.63;4.00;;;;;;;;;;5034213;28;20441;-52
2022/08/16 07:50:00;;;;;;;6.47;4.57;;;;;;;;;;5041680;28;20972;-52
2022/08/16 07:52:26;;;;;;;4.67;4.00;;;;;;;;;;5053604;28;20460;-52
2022/08/16 07:54:52;;;;;;;6.60;3.60;;;;;;;;;;5038082;28;20414;-52
2022/08/16 07:57:19;;;;;;;6.80;4.07;;;;;;;;;;5033911;28;20500;-52
2022/08/16 07:59:45;;;;;;;7.93;3.73;;;;;;;;;;5051270;28;20531;-53
2022/08/16 08:02:12;;;;;;;5.13;3.80;;;;;;;;;;5041695;28;20426;-52
2022/08/16 08:04:39;;;;;;;3.93;3.60;;;;;;;;;;5039973;28;20442;-52
2022/08/16 08:07:05;;;;;;;3.77;3.47;;;;;;;;;;5049991;28;20949;-52
2022/08/16 08:09:31;;;;;;;4.13;3.73;;;;;;;;;;5051925;28;20467;-52
2022/08/16 08:11:57;;;;;;;4.10;3.80;;;;;;;;;;5051397;28;20449;-52
2022/08/16 08:14:23;;;;;;;4.23;3.87;;;;;;;;;;5044245;28;20436;-52
2022/08/16 08:16:49;;;;;;;5.27;3.80;;;;;;;;;;5038952;28;20437;-52
2022/08/16 08:19:15;;;;;;;5.20;3.83;;;;;;;;;;5040933;28;20937;-52
2022/08/16 08:21:42;;;;;;;3.87;3.57;;;;;;;;;;5048650;28;20413;-52
2022/08/16 08:24:09;;;;;;;4.43;4.03;;;;;;;;;;5050068;28;20418;-52
2022/08/16 08:26:35;;;;;;;4.00;3.70;;;;;;;;;;5033962;28;20436;-51
2022/08/16 08:29:02;;;;;;;5.70;3.70;;;;;;;;;;5034391;28;20402;-52
2022/08/16 08:31:28;;;;;;;4.43;4.03;;;;;;;;;;5048240;28;20500;-51
2022/08/16 08:33:55;;;;;;;6.00;4.20;;;;;;;;;;5045611;28;20527;-52
2022/08/16 08:36:29;;;;;;;5.50;3.30;;;;;;;;;;5041205;28;20414;-52
2022/08/16 08:38:55;;;;;;;7.27;4.70;;;;;;;;;;5033081;28;20410;-52
2022/08/16 08:41:22;;;;;;;8.50;3.70;;;;;;;;;;5033521;28;20415;-51
2022/08/16 08:43:48;;;;;;;4.90;4.10;;;;;;;;;;5034994;28;20491;-52
2022/08/16 08:46:14;;;;;;;4.93;3.70;;;;;;;;;;5051219;28;20425;-52
2022/08/16 08:48:40;;;;;;;4.03;3.83;;;;;;;;;;5051211;28;20414;-52
2022/08/16 08:51:07;;;;;;;3.80;3.50;;;;;;;;;;5051669;28;20500;-52
2022/08/16 08:53:34;;;;;;;3.40;3.20;;;;;;;;;;5032886;28;20461;-51
2022/08/16 08:56:01;;;;;;;4.63;4.23;;;;;;;;;;5045225;28;20413;-52
2022/08/16 08:58:27;;;;;;;8.97;3.40;;;;;;;;;;5049645;28;20951;-52
2022/08/16 09:00:53;;;;;;;8.17;4.30;;;;;;;;;;5047561;28;20436;-52
2022/08/16 09:03:19;;;;;;;5.40;4.17;;;;;;;;;;5034499;28;20740;-51
2022/08/16 09:05:45;;;;;;;5.10;3.83;;;;;;;;;;5040602;28;20425;-52
2022/08/16 09:08:11;;;;;;;4.83;4.37;;;;;;;;;;5042805;28;20442;-52
2022/08/16 09:10:37;;;;;;;6.13;4.47;;;;;;;;;;5032437;28;20425;-52
2022/08/16 09:13:04;;;;;;;4.57;4.13;;;;;;;;;;5045086;28;20461;-52
2022/08/16 09:15:30;;;;;;;5.53;3.63;;;;;;;;;;5039453;28;20926;-53
2022/08/16 09:17:56;;;;;;;5.33;4.53;;;;;;;;;;5032786;28;20441;-53
2022/08/16 09:20:26;;;;;;;3.60;3.30;;;;;;;;;;5031468;28;20413;-52
2022/08/16 09:22:52;;;;;;;7.27;4.23;;;;;;;;;;5031993;28;20993;-52
2022/08/16 09:25:18;;;;;;;4.30;3.97;;;;;;;;;;5031879;28;20964;-52
2022/08/16 09:27:44;;;;;;;8.60;3.87;;;;;;;;;;5032717;28;20442;-52
2022/08/16 09:30:10;;;;;;;9.00;3.97;;;;;;;;;;5040726;28;20778;-52
2022/08/16 09:32:37;;;;;;;3.63;3.27;;;;;;;;;;5040255;28;20814;-52
2022/08/16 09:35:03;;;;;;;5.07;3.80;;;;;;;;;;5035865;28;20405;-52
2022/08/16 09:37:31;;;;;;;4.87;4.20;;;;;;;;;;5050256;28;20441;-51
2022/08/16 09:39:57;;;;;;;4.20;3.90;;;;;;;;;;5046093;28;20441;-51
2022/08/16 09:42:23;;;;;;;4.93;4.50;;;;;;;;;;5033544;28;20496;-52
2022/08/16 09:44:49;;;;;;;4.03;3.73;;;;;;;;;;5030985;28;20414;-52
2022/08/16 09:47:15;;;;;;;5.73;4.30;;;;;;;;;;5043857;28;20521;-52
2022/08/16 09:49:44;;;;;;;4.83;4.50;;;;;;;;;;5031414;28;20437;-53
2022/08/16 09:52:10;;;;;;;3.70;3.50;;;;;;;;;;5032729;28;20476;-52
2022/08/16 09:54:37;;;;;;;4.37;4.03;;;;;;;;;;5032727;28;20907;-53
2022/08/16 09:57:03;;;;;;;4.30;3.97;;;;;;;;;;5035160;28;20441;-52
2022/08/16 09:59:30;;;;;;;4.03;3.73;;;;;;;;;;5049299;28;20401;-52
2022/08/16 10:01:56;;;;;;;4.60;4.20;;;;;;;;;;5030835;28;20402;-52
2022/08/16 10:04:25;;;;;;;4.23;3.83;;;;;;;;;;5035120;28;21004;-51
2022/08/16 10:06:52;;;;;;;4.20;3.80;;;;;;;;;;5045812;28;20938;-51
2022/08/16 10:09:18;;;;;;;5.63;4.27;;;;;;;;;;5040155;28;20403;-53
2022/08/16 10:14:29;;;;;;;4.87;4.33;;;;;;;;;;5033151;28;20432;-53
2022/08/16 10:16:59;;;;;;;5.50;3.57;;;;;;;;;;5032060;28;20825;-51
2022/08/16 10:19:25;;;;;;;3.87;3.67;;;;;;;;;;5041946;28;20478;-51
2022/08/16 10:21:52;;;;;;;6.07;3.77;;;;;;;;;;5039130;28;20421;-52
2022/08/16 10:24:18;;;;;;;6.13;3.77;;;;;;;;;;5049361;28;20429;-51
2022/08/16 10:26:44;;;;;;;3.90;3.60;;;;;;;;;;5046385;28;20451;-51
2022/08/16 10:29:11;;;;;;;3.93;3.60;;;;;;;;;;5036202;28;20414;-52
2022/08/16 10:31:37;;;;;;;4.30;3.90;;;;;;;;;;5043246;28;20425;-51
2022/08/16 10:34:03;;;;;;;5.70;3.53;;;;;;;;;;5031441;28;20394;-51
2022/08/16 10:36:29;;;;;;;4.50;4.10;;;;;;;;;;5033288;28;20555;-51
2022/08/16 10:38:55;;;;;;;4.40;3.60;;;;;;;;;;5042395;28;20420;-52
2022/08/16 10:41:21;;;;;;;4.33;3.80;;;;;;;;;;5043351;28;20928;-53
2022/08/16 10:43:50;;;;;;;3.20;3.00;;;;;;;;;;5051376;28;20210;-52
2022/08/16 10:46:16;;;;;;;4.90;3.57;;;;;;;;;;5050654;28;20413;-52
2022/08/16 10:48:43;;;;;;;5.97;3.33;;;;;;;;;;5045874;28;20418;-52
2022/08/16 10:51:10;;;;;;;6.03;3.70;;;;;;;;;;5030742;28;20446;-53
2022/08/16 10:53:37;;;;;;;10.53;3.37;;;;;;;;;;5043507;28;20819;-53
2022/08/16 10:56:04;;;;;;;3.87;3.10;;;;;;;;;;5046940;28;20413;-54
2022/08/16 10:58:30;;;;;;;13.47;3.50;;;;;;;;;;5043161;28;20449;-53
2022/08/16 11:00:56;;;;;;;3.20;2.90;;;;;;;;;;5034390;28;20426;-53
2022/08/16 11:03:23;;;;;;;3.27;2.97;;;;;;;;;;5049774;28;20447;-52
2022/08/16 11:05:49;;;;;;;6.00;3.47;;;;;;;;;;5041837;28;20842;-52
2022/08/16 11:08:16;;;;;;;4.20;3.80;;;;;;;;;;5050785;28;20437;-52
2022/08/16 11:10:44;;;;;;;4.03;3.63;;;;;;;;;;5042280;28;20484;-52
2022/08/16 11:13:11;;;;;;;4.50;4.00;;;;;;;;;;5045609;28;21035;-52
2022/08/16 11:15:38;;;;;;;3.47;2.77;;;;;;;;;;5043855;28;20499;-52
2022/08/16 11:18:06;;;;;;;4.20;2.97;;;;;;;;;;5035966;28;20437;-52
2022/08/16 11:20:32;;;;;;;5.50;3.37;;;;;;;;;;5037755;28;20452;-52
2022/08/16 11:22:58;;;;;;;3.37;3.03;;;;;;;;;;5052177;28;20439;-52
2022/08/16 11:25:26;;;;;;;3.43;3.13;;;;;;;;;;5034478;28;20441;-52
2022/08/16 11:27:53;;;;;;;2.80;2.60;;;;;;;;;;5032956;28;20426;-52
2022/08/16 11:30:19;;;;;;;4.27;3.30;;;;;;;;;;5040328;28;20952;-52
2022/08/16 11:32:46;;;;;;;4.20;3.80;;;;;;;;;;5048477;28;20993;-52
2022/08/16 11:35:13;;;;;;;3.90;3.50;;;;;;;;;;5042421;28;20433;-52
2022/08/16 11:37:40;;;;;;;3.27;3.00;;;;;;;;;;5053337;28;20432;-54
2022/08/16 11:40:07;;;;;;;4.50;3.20;;;;;;;;;;5052001;28;20417;-53
2022/08/16 11:42:33;;;;;;;5.10;3.83;;;;;;;;;;5052337;28;20420;-52
2022/08/16 11:44:59;;;;;;;3.40;3.10;;;;;;;;;;5053709;28;20421;-51
2022/08/16 11:47:25;;;;;;;3.60;3.40;;;;;;;;;;5052198;28;20437;-51
2022/08/16 11:49:51;;;;;;;6.50;3.40;;;;;;;;;;5051989;28;20183;-51
2022/08/16 11:52:18;;;;;;;3.50;3.20;;;;;;;;;;5048855;28;20462;-52
2022/08/16 11:54:45;;;;;;;10.30;3.40;;;;;;;;;;5053740;28;20401;-52
2022/08/16 11:57:12;;;;;;;3.37;3.07;;;;;;;;;;5048427;28;20446;-53
2022/08/16 11:59:39;;;;;;;3.70;2.90;;;;;;;;;;5033756;28;20418;-50
2022/08/16 12:02:05;;;;;;;5.47;3.40;;;;;;;;;;5041092;28;20428;-52
2022/08/16 12:04:32;;;;;;;3.57;3.27;;;;;;;;;;5052902;28;20866;-52
2022/08/16 12:06:59;;;;;;;4.13;3.20;;;;;;;;;;5052657;28;20441;-53
2022/08/16 12:09:25;;;;;;;3.30;3.00;;;;;;;;;;5053542;28;20436;-52
2022/08/16 12:11:51;;;;;;;4.27;3.53;;;;;;;;;;5033301;28;20462;-53
2022/08/16 12:14:17;;;;;;;3.13;2.60;;;;;;;;;;5049348;28;20418;-53
2022/08/16 12:16:43;;;;;;;3.87;3.03;;;;;;;;;;5046179;28;20438;-52
2022/08/16 12:19:09;;;;;;;4.03;3.20;;;;;;;;;;5034815;28;20414;-52
2022/08/16 12:21:35;;;;;;;7.80;3.23;;;;;;;;;;5056095;28;20416;-54
2022/08/16 12:24:01;;;;;;;4.60;2.83;;;;;;;;;;5053237;28;20397;-54
2022/08/16 12:26:27;;;;;;;4.80;3.23;;;;;;;;;;5036180;28;20784;-55
2022/08/16 12:28:53;;;;;;;5.37;3.27;;;;;;;;;;5033278;28;20422;-53
2022/08/16 12:31:21;;;;;;;3.17;2.80;;;;;;;;;;5032619;28;20535;-53
2022/08/16 12:33:47;;;;;;;2.80;2.60;;;;;;;;;;5044753;28;20987;-53
2022/08/16 12:36:16;;;;;;;5.27;3.27;;;;;;;;;;5047539;28;20811;-53
2022/08/16 12:38:43;;;;;;;3.13;2.67;;;;;;;;;;5049738;28;20422;-52
2022/08/16 12:41:09;;;;;;;3.63;2.97;;;;;;;;;;5051973;28;20459;-53
2022/08/16 12:43:35;;;;;;;3.17;2.80;;;;;;;;;;5048216;28;20413;-53
2022/08/16 12:46:01;;;;;;;3.97;3.10;;;;;;;;;;5039789;28;20985;-53
2022/08/16 12:51:17;;;;;;;4.73;3.20;;;;;;;;;;5052442;28;20881;-52
2022/08/16 12:53:43;;;;;;;10.63;3.57;;;;;;;;;;5037193;28;20559;-53
2022/08/16 12:56:10;;;;;;;4.70;3.27;;;;;;;;;;5042084;28;20794;-52
2022/08/16 12:58:37;;;;;;;4.13;3.07;;;;;;;;;;5052475;28;20428;-53
2022/08/16 13:01:03;;;;;;;4.90;2.93;;;;;;;;;;5052123;28;20444;-53
2022/08/16 13:03:29;;;;;;;3.77;3.00;;;;;;;;;;5052670;28;20398;-53
2022/08/16 13:05:55;;;;;;;4.53;3.20;;;;;;;;;;5052439;28;20466;-53
2022/08/16 13:08:21;;;;;;;4.43;3.30;;;;;;;;;;5052236;28;20195;-53
2022/08/16 13:10:48;;;;;;;3.83;3.53;;;;;;;;;;5051783;28;20455;-53
2022/08/16 13:13:23;;;;;;;3.30;3.10;;;;;;;;;;5052491;28;20449;-52
2022/08/16 13:15:49;;;;;;;5.27;4.00;;;;;;;;;;5052169;28;20435;-52
2022/08/16 13:18:15;;;;;;;4.07;3.67;;;;;;;;;;5051536;28;20428;-53
2022/08/16 13:20:41;;;;;;;4.07;3.77;;;;;;;;;;5052963;28;20393;-52
2022/08/16 13:23:10;;;;;;;4.17;3.03;;;;;;;;;;5044765;28;20513;-53
2022/08/16 13:25:37;;;;;;;3.90;3.40;;;;;;;;;;5036431;28;20795;-53
2022/08/16 13:28:03;;;;;;;4.20;3.80;;;;;;;;;;5052267;28;20470;-53
2022/08/16 13:30:32;;;;;;;6.53;3.50;;;;;;;;;;5033999;28;20409;-53
2022/08/16 13:32:58;;;;;;;3.97;3.57;;;;;;;;;;5052182;28;20548;-52
2022/08/16 13:35:24;;;;;;;5.67;3.53;;;;;;;;;;5052173;28;20429;-53
2022/08/16 13:37:50;;;;;;;4.00;3.70;;;;;;;;;;5053697;28;20413;-52
2022/08/16 13:40:16;;;;;;;3.70;3.40;;;;;;;;;;5052025;28;20416;-52
2022/08/16 13:42:43;;;;;;;3.90;3.60;;;;;;;;;;5036856;28;20475;-52
2022/08/16 13:45:09;;;;;;;5.10;3.83;;;;;;;;;;5050143;28;20445;-53
2022/08/16 13:47:35;;;;;;;4.27;3.80;;;;;;;;;;5046555;28;20422;-52
2022/08/16 13:50:02;;;;;;;5.17;3.67;;;;;;;;;;5030857;28;20990;-52
2022/08/16 13:52:28;;;;;;;4.03;3.60;;;;;;;;;;5048391;28;20457;-52
2022/08/16 13:54:54;;;;;;;4.07;3.67;;;;;;;;;;5036318;28;20410;-52
2022/08/16 13:57:20;;;;;;;5.90;3.73;;;;;;;;;;5031410;28;21029;-53
2022/08/16 13:59:46;;;;;;;6.60;3.47;;;;;;;;;;5030669;28;20394;-53
2022/08/16 14:02:12;;;;;;;3.43;3.20;;;;;;;;;;5032988;28;20441;-53
2022/08/16 14:04:39;;;;;;;3.20;3.00;;;;;;;;;;5032717;28;20501;-52
2022/08/16 14:07:07;;;;;;;6.17;3.17;;;;;;;;;;5031245;28;20433;-52
2022/08/16 14:09:35;;;;;;;5.93;3.20;;;;;;;;;;5042002;28;20417;-54
2022/08/16 14:12:02;;;;;;;3.97;3.23;;;;;;;;;;5051228;28;20785;-52
2022/08/16 14:14:28;;;;;;;3.47;3.20;;;;;;;;;;5041306;28;20421;-52
2022/08/16 14:16:54;;;;;;;4.00;3.13;;;;;;;;;;5032119;28;20442;-53
2022/08/16 14:19:20;;;;;;;4.60;3.50;;;;;;;;;;5032376;28;20798;-53
2022/08/16 14:21:47;;;;;;;4.90;3.60;;;;;;;;;;5041386;28;20860;-52
2022/08/16 14:24:14;;;;;;;5.57;3.43;;;;;;;;;;5033815;28;20422;-54
2022/08/16 14:26:43;;;;;;;4.67;3.40;;;;;;;;;;5032433;28;20442;-52
2022/08/16 14:29:09;;;;;;;5.13;3.50;;;;;;;;;;5050735;28;20413;-52
2022/08/16 14:31:36;;;;;;;5.87;4.80;;;;;;;;;;5051685;28;20429;-53
2022/08/16 14:34:03;;;;;;;3.83;3.53;;;;;;;;;;5055365;28;20492;-53
2022/08/16 14:36:29;;;;;;;3.83;3.43;;;;;;;;;;5050532;28;20766;-52
2022/08/16 14:38:55;;;;;;;7.10;4.43;;;;;;;;;;5035204;28;20421;-52
2022/08/16 14:41:21;;;;;;;8.73;4.40;;;;;;;;;;5035820;28;20417;-52
2022/08/16 14:43:47;;;;;;;3.83;3.53;;;;;;;;;;5036454;28;20813;-52